Time;durP1;ratioP1;P1;durP2;ratioP2;P2;SDS_P1;SDS_P2;PMS_P1;PMS_P2;Temp;Humidity;BMP_temperature;BMP_pressure;BME280_temperature;BME280_humidity;BME280_pressure;Samples;Min_cycle;Max_cycle;Signal;HPM_P1;HPM_P2
2021/06/08 00:01:58;;;;;;;1999.90;999.90;;;;;;;12.60;100.00;95772.59;5131628;27;20222;-58
2021/06/08 00:04:25;;;;;;;1999.90;999.90;;;;;;;12.43;100.00;95770.66;5131571;27;20669;-61
2021/06/08 00:06:52;;;;;;;1999.90;999.90;;;;;;;12.47;100.00;95769.00;5131223;27;20583;-61
2021/06/08 00:09:18;;;;;;;1999.90;999.90;;;;;;;12.56;100.00;95770.88;5131575;27;20194;-60
2021/06/08 00:11:48;;;;;;;1999.90;999.90;;;;;;;12.57;100.00;95770.56;5131238;27;20226;-61
2021/06/08 00:14:15;;;;;;;1999.90;999.90;;;;;;;12.56;100.00;95761.22;5131370;27;20197;-60
2021/06/08 00:16:42;;;;;;;1999.90;999.90;;;;;;;12.50;100.00;95762.44;5131244;27;20229;-61
2021/06/08 00:19:08;;;;;;;1999.90;999.90;;;;;;;12.35;100.00;95760.19;5131439;27;20199;-60
2021/06/08 00:21:36;;;;;;;1999.90;999.90;;;;;;;12.39;100.00;95761.13;5131067;27;20281;-60
2021/06/08 00:24:03;;;;;;;1999.90;999.90;;;;;;;12.43;100.00;95762.84;5131188;27;20193;-59
2021/06/08 00:26:30;;;;;;;1999.90;999.90;;;;;;;12.34;100.00;95758.63;5131006;27;20200;-60
2021/06/08 00:28:58;;;;;;;1999.90;999.90;;;;;;;12.42;100.00;95750.09;5131509;27;20550;-61
2021/06/08 00:31:25;;;;;;;1999.90;999.90;;;;;;;12.42;100.00;95750.09;5131199;28;20213;-60
2021/06/08 00:33:53;;;;;;;1999.90;999.90;;;;;;;12.51;100.00;95748.31;5130948;28;20205;-60
2021/06/08 00:36:20;;;;;;;1999.90;999.90;;;;;;;12.54;100.00;95737.28;5130379;28;20229;-60
2021/06/08 00:38:47;;;;;;;1999.90;999.90;;;;;;;12.57;100.00;95736.69;5131200;28;20201;-60
2021/06/08 00:41:14;;;;;;;1999.90;999.90;;;;;;;12.65;100.00;95728.13;5130929;28;20690;-60
2021/06/08 00:43:41;;;;;;;1999.90;999.90;;;;;;;12.59;100.00;95739.00;5131061;27;20194;-61
2021/06/08 00:46:09;;;;;;;1999.90;999.90;;;;;;;12.61;100.00;95726.41;5131241;28;20233;-62
2021/06/08 00:48:36;;;;;;;1999.90;999.90;;;;;;;12.64;100.00;95721.41;5130880;28;20201;-61
2021/06/08 00:51:02;;;;;;;1999.90;999.90;;;;;;;12.78;100.00;95722.06;5131081;28;20324;-60
2021/06/08 00:53:29;;;;;;;1999.90;999.90;;;;;;;12.91;100.00;95713.34;5130955;28;20293;-60
2021/06/08 00:55:56;;;;;;;1999.90;999.90;;;;;;;12.87;100.00;95717.66;5130721;28;20190;-60
2021/06/08 00:58:23;;;;;;;1999.90;999.90;;;;;;;12.95;100.00;95722.13;5130678;28;20226;-60
2021/06/08 01:00:49;;;;;;;1999.90;999.90;;;;;;;12.97;100.00;95718.44;5133515;27;20261;-61
2021/06/08 01:03:18;;;;;;;1999.90;999.90;;;;;;;12.90;100.00;95711.81;5134936;27;20679;-61
2021/06/08 01:05:44;;;;;;;1999.90;999.90;;;;;;;12.93;100.00;95719.06;5135102;27;20191;-60
2021/06/08 01:08:11;;;;;;;1999.90;999.90;;;;;;;12.92;100.00;95716.75;5134802;27;20194;-61
2021/06/08 01:10:38;;;;;;;1999.90;999.90;;;;;;;12.95;100.00;95716.91;5134627;27;20238;-61
2021/06/08 01:13:05;;;;;;;1999.90;999.90;;;;;;;12.94;100.00;95715.38;5134949;27;20524;-61
2021/06/08 01:15:33;;;;;;;1999.90;999.90;;;;;;;13.01;100.00;95708.94;5134837;27;20245;-60
2021/06/08 01:18:00;;;;;;;1999.90;999.90;;;;;;;13.03;100.00;95717.25;5134628;27;20345;-61
2021/06/08 01:20:28;;;;;;;1999.90;999.90;;;;;;;13.09;100.00;95711.59;5134601;27;20202;-61
2021/06/08 01:22:57;;;;;;;1999.90;999.90;;;;;;;13.15;100.00;95707.78;5134498;27;20665;-61
2021/06/08 01:25:23;;;;;;;1999.90;999.90;;;;;;;13.21;100.00;95692.75;5134496;27;20753;-61
2021/06/08 01:27:51;;;;;;;1999.90;999.90;;;;;;;13.20;100.00;95701.66;5134177;27;20198;-60
2021/06/08 01:30:20;;;;;;;1999.90;999.90;;;;;;;13.11;100.00;95700.81;5134410;27;20620;-61
2021/06/08 01:32:47;;;;;;;1999.90;999.90;;;;;;;13.06;100.00;95704.34;5134658;27;20191;-58
2021/06/08 01:35:16;;;;;;;1999.90;999.90;;;;;;;13.19;100.00;95700.13;5134414;27;20199;-60
2021/06/08 01:37:45;;;;;;;1999.90;999.90;;;;;;;13.20;100.00;95699.06;5133962;27;20230;-61
2021/06/08 01:40:17;;;;;;;1999.90;999.90;;;;;;;13.20;100.00;95701.66;5134205;27;20197;-60
2021/06/08 01:42:44;;;;;;;1999.90;999.90;;;;;;;13.20;100.00;95701.66;5134310;27;20191;-62
2021/06/08 01:45:16;;;;;;;1999.90;999.90;;;;;;;13.14;100.00;95708.09;5134187;27;20198;-60
2021/06/08 01:47:43;;;;;;;1999.90;999.90;;;;;;;13.21;100.00;95695.34;5133970;27;20191;-62
2021/06/08 01:50:10;;;;;;;1999.90;999.90;;;;;;;13.22;100.00;95702.13;5133790;27;20202;-60
2021/06/08 01:52:41;;;;;;;1999.90;999.90;;;;;;;13.29;100.00;95705.06;5134019;27;20191;-60
2021/06/08 01:55:17;;;;;;;1999.90;999.90;;;;;;;13.34;100.00;95699.69;5134378;27;20243;-61
2021/06/08 01:57:47;;;;;;;1999.90;999.90;;;;;;;13.39;100.00;95693.56;5135106;27;20230;-61
2021/06/08 02:00:18;;;;;;;1999.90;999.90;;;;;;;13.45;100.00;95689.72;5133858;27;20243;-62
2021/06/08 02:03:02;;;;;;;1999.90;999.90;;;;;;;13.47;100.00;95690.94;5133654;27;20207;-61
2021/06/08 02:05:38;;;;;;;1999.90;999.90;;;;;;;13.63;100.00;95689.44;5133647;27;20273;-61
2021/06/08 02:08:17;;;;;;;1999.90;999.90;;;;;;;13.54;100.00;95690.50;5133734;27;20201;-61
2021/06/08 02:10:53;;;;;;;1999.90;999.90;;;;;;;13.47;100.00;95690.94;5133323;27;20234;-62
2021/06/08 02:13:30;;;;;;;1999.90;999.90;;;;;;;13.17;100.00;95697.81;5133482;27;20247;-61
2021/06/08 02:16:03;;;;;;;1999.90;999.90;;;;;;;13.08;100.00;95696.22;5133425;27;20682;-60
2021/06/08 02:18:31;;;;;;;1999.90;999.90;;;;;;;12.90;100.00;95703.25;5133524;27;20199;-61
2021/06/08 02:21:01;;;;;;;1999.90;999.90;;;;;;;13.09;100.00;95710.81;5133419;27;20268;-60
2021/06/08 02:23:30;;;;;;;1999.90;999.90;;;;;;;13.01;100.00;95708.94;5133776;27;20642;-60
2021/06/08 02:25:59;;;;;;;1999.90;999.90;;;;;;;12.85;100.00;95711.22;5133193;27;20676;-61
2021/06/08 02:28:30;;;;;;;1999.90;999.90;;;;;;;12.77;100.00;95709.31;5133330;27;20297;-62
2021/06/08 02:31:02;;;;;;;1999.90;999.90;;;;;;;12.74;100.00;95709.94;5133469;27;20277;-61
2021/06/08 02:33:29;;;;;;;1999.90;999.90;;;;;;;12.94;100.00;95715.38;5133257;27;20200;-61
2021/06/08 02:35:57;;;;;;;1999.90;999.90;;;;;;;12.97;100.00;95713.22;5132987;27;20190;-59
2021/06/08 02:38:26;;;;;;;1999.90;999.90;;;;;;;12.83;100.00;95708.13;5133034;27;20331;-60
2021/06/08 02:40:53;;;;;;;1999.90;999.90;;;;;;;12.88;100.00;95705.38;5133101;27;20661;-59
2021/06/08 02:43:25;;;;;;;1999.90;999.90;;;;;;;12.95;100.00;95716.91;5133045;27;20202;-59
2021/06/08 02:45:53;;;;;;;1999.90;999.90;;;;;;;13.08;100.00;95714.50;5133045;27;20286;-59
2021/06/08 02:48:21;;;;;;;1999.90;999.90;;;;;;;13.00;100.00;95718.59;5132943;27;20236;-59
2021/06/08 02:50:49;;;;;;;1999.90;999.90;;;;;;;13.04;100.00;95719.56;5132782;27;20195;-60
2021/06/08 02:53:17;;;;;;;1999.90;999.90;;;;;;;13.11;100.00;95719.91;5132773;27;20186;-60
2021/06/08 02:55:45;;;;;;;1999.90;999.90;;;;;;;13.18;100.00;95722.06;5132823;27;20644;-60
2021/06/08 02:58:13;;;;;;;1999.90;999.90;;;;;;;13.16;100.00;95724.97;5132540;27;20605;-60
2021/06/08 03:00:42;;;;;;;1999.90;999.90;;;;;;;13.04;100.00;95729.22;5132464;27;20255;-60
2021/06/08 03:03:11;;;;;;;1999.90;999.90;;;;;;;13.09;100.00;95726.47;5132455;27;20198;-60
2021/06/08 03:05:41;;;;;;;1999.90;999.90;;;;;;;13.24;100.00;95728.69;5132417;27;20246;-60
2021/06/08 03:08:13;;;;;;;1999.90;999.90;;;;;;;13.25;100.00;95730.97;5132516;27;20190;-60
2021/06/08 03:10:43;;;;;;;1999.90;999.90;;;;;;;13.31;100.00;95739.44;5132290;27;20267;-60
2021/06/08 03:13:12;;;;;;;1999.90;999.90;;;;;;;13.28;100.00;95737.44;5132404;27;20203;-60
2021/06/08 03:15:46;;;;;;;1999.90;999.90;;;;;;;13.30;100.00;95737.88;5132605;27;20226;-60
2021/06/08 03:18:17;;;;;;;1999.90;999.90;;;;;;;13.24;100.00;95739.13;5132459;27;20230;-60
2021/06/08 03:20:47;;;;;;;1999.90;999.90;;;;;;;13.28;100.00;95735.59;5132177;27;20190;-60
2021/06/08 03:23:19;;;;;;;1999.90;999.90;;;;;;;13.32;100.00;95739.13;5132084;27;20653;-60
2021/06/08 03:25:48;;;;;;;1999.90;999.90;;;;;;;13.26;100.00;95736.97;5132136;27;20240;-60
2021/06/08 03:28:18;;;;;;;1999.90;999.90;;;;;;;13.29;100.00;95741.59;5131949;27;20210;-59
2021/06/08 03:30:48;;;;;;;1999.90;999.90;;;;;;;13.27;100.00;95744.50;5132190;27;20201;-60
2021/06/08 03:33:14;;;;;;;1999.90;999.90;;;;;;;13.32;100.00;95746.19;5131982;27;20202;-60
2021/06/08 03:35:42;;;;;;;1999.90;999.90;;;;;;;13.33;100.00;95747.75;5132020;27;20194;-60
2021/06/08 03:38:10;;;;;;;1999.90;999.90;;;;;;;13.39;100.00;95751.75;5131757;27;20708;-60
2021/06/08 03:40:37;;;;;;;1999.90;999.90;;;;;;;13.41;100.00;95760.03;5131738;27;20277;-61
2021/06/08 03:43:04;;;;;;;1999.90;999.90;;;;;;;13.46;100.00;95757.28;5131891;27;20258;-60
2021/06/08 03:45:32;;;;;;;1999.90;999.90;;;;;;;13.49;100.00;95756.69;5131772;27;20574;-60
2021/06/08 03:48:02;;;;;;;1999.90;999.90;;;;;;;13.61;100.00;95749.00;5131661;27;20226;-60
2021/06/08 03:50:29;;;;;;;1999.90;999.90;;;;;;;13.53;100.00;95746.41;5131861;27;20372;-60
2021/06/08 03:52:57;;;;;;;1999.90;999.90;;;;;;;13.56;100.00;95753.59;5131588;27;20215;-61
2021/06/08 03:55:25;;;;;;;1999.90;999.90;;;;;;;13.63;100.00;95757.31;5131738;27;20197;-60
2021/06/08 03:57:55;;;;;;;1999.90;999.90;;;;;;;13.71;100.00;95761.78;5131458;27;20232;-60
2021/06/08 04:00:23;;;;;;;1999.90;999.90;;;;;;;13.68;100.00;95759.78;5131600;27;20187;-61
2021/06/08 04:02:51;;;;;;;1999.90;999.90;;;;;;;13.77;100.00;95763.16;5131913;27;20186;-61
2021/06/08 04:05:20;;;;;;;1999.90;999.90;;;;;;;13.84;100.00;95757.50;5131311;27;20198;-60
2021/06/08 04:07:47;;;;;;;1999.90;999.90;;;;;;;13.91;100.00;95757.03;5131535;27;20222;-61
2021/06/08 04:10:18;;;;;;;1999.90;999.90;;;;;;;13.94;100.00;95767.66;5131580;27;20230;-61
2021/06/08 04:12:45;;;;;;;1999.90;999.90;;;;;;;14.02;100.00;95766.88;5131273;27;20650;-60
2021/06/08 04:15:13;;;;;;;1999.90;999.90;;;;;;;13.91;100.00;95762.25;5131285;27;20250;-61
2021/06/08 04:17:40;;;;;;;1999.90;999.90;;;;;;;13.91;100.00;95768.25;5131138;27;20249;-60
2021/06/08 04:20:12;;;;;;;1999.90;999.90;;;;;;;14.06;100.00;95765.16;5131061;27;21097;-60
2021/06/08 04:22:45;;;;;;;1999.90;999.90;;;;;;;14.14;100.00;95768.88;5131209;27;20194;-61
2021/06/08 04:25:17;;;;;;;1999.90;999.90;;;;;;;14.11;100.00;95766.84;5131383;27;20212;-60
2021/06/08 04:27:44;;;;;;;1999.90;999.90;;;;;;;14.24;100.00;95779.00;5131117;27;20198;-61
2021/06/08 04:30:13;;;;;;;1999.90;999.90;;;;;;;14.32;100.00;95774.84;5130852;27;20219;-59
2021/06/08 04:32:41;;;;;;;1999.90;999.90;;;;;;;14.57;100.00;95772.22;5131101;27;20205;-61
2021/06/08 04:35:09;;;;;;;1999.90;999.90;;;;;;;14.62;100.00;95772.06;5130572;27;20202;-59
2021/06/08 04:37:37;;;;;;;1999.90;999.90;;;;;;;14.59;100.00;95770.03;5130538;28;20742;-59
2021/06/08 04:40:08;;;;;;;1999.90;999.90;;;;;;;14.71;100.00;95773.88;5130667;28;20220;-60
2021/06/08 04:42:36;;;;;;;1999.90;999.90;;;;;;;14.53;100.00;95768.69;5130662;28;20255;-59
2021/06/08 04:45:04;;;;;;;1999.90;999.90;;;;;;;14.65;100.00;95778.50;5130563;28;20254;-60
2021/06/08 04:47:31;;;;;;;1999.90;999.90;;;;;;;14.73;100.00;95782.19;5130892;28;20203;-60
2021/06/08 04:49:58;;;;;;;1999.90;999.90;;;;;;;14.64;100.00;95780.34;5130688;27;20205;-60
2021/06/08 04:52:25;;;;;;;1999.90;999.90;;;;;;;14.78;100.00;95789.88;5130693;28;20234;-60
2021/06/08 04:54:52;;;;;;;1999.90;999.90;;;;;;;14.63;100.00;95789.28;5130791;28;20278;-60
2021/06/08 04:57:21;;;;;;;1999.90;999.90;;;;;;;14.69;100.00;95783.91;5130577;28;20291;-60
2021/06/08 04:59:52;;;;;;;1999.90;999.90;;;;;;;14.90;100.00;95788.13;5130494;28;20205;-60
2021/06/08 05:02:25;;;;;;;1999.90;999.90;;;;;;;15.04;100.00;95793.94;5130872;28;20218;-60
2021/06/08 05:04:55;;;;;;;1999.90;999.90;;;;;;;14.81;100.00;95790.00;5130583;28;20584;-60
2021/06/08 05:07:23;;;;;;;1999.90;999.90;;;;;;;14.78;100.00;95789.88;5130549;28;20191;-60
2021/06/08 05:09:53;;;;;;;1999.90;999.90;;;;;;;14.63;100.00;95789.28;5130584;28;20274;-59
2021/06/08 05:12:24;;;;;;;1999.90;999.90;;;;;;;14.78;100.00;95792.50;5130745;28;20327;-59
2021/06/08 05:14:53;;;;;;;1999.90;999.90;;;;;;;14.92;100.00;95787.81;5130591;28;20198;-59
2021/06/08 05:17:22;;;;;;;1999.90;999.90;;;;;;;14.82;100.00;95793.41;5130625;28;20227;-60
2021/06/08 05:19:50;;;;;;;1999.90;999.90;;;;;;;14.89;100.00;95791.06;5130643;27;20187;-59
2021/06/08 05:22:19;;;;;;;1999.90;999.90;;;;;;;15.01;100.00;95791.94;5130498;28;20191;-61
2021/06/08 05:24:50;;;;;;;1999.90;999.90;;;;;;;15.06;100.00;95791.78;5130517;28;20670;-59
2021/06/08 05:27:17;;;;;;;1999.90;999.90;;;;;;;14.99;100.00;95786.25;5130413;28;20666;-60
2021/06/08 05:29:46;;;;;;;1999.90;999.90;;;;;;;15.06;100.00;95788.38;5130627;28;20215;-61
2021/06/08 05:32:16;;;;;;;1999.90;999.90;;;;;;;15.18;100.00;95791.13;5130317;28;20571;-59
2021/06/08 05:34:45;;;;;;;1999.90;999.90;;;;;;;15.22;100.00;95794.63;5129188;28;20195;-60
2021/06/08 05:37:13;;;;;;;1999.90;999.90;;;;;;;15.16;100.00;95795.13;5130403;27;20279;-60
2021/06/08 05:39:43;;;;;;;1999.90;999.90;;;;;;;15.27;100.00;95801.56;5130597;28;20191;-60
2021/06/08 05:42:12;;;;;;;1999.90;999.90;;;;;;;15.54;100.00;95800.38;5130573;28;20298;-61
2021/06/08 05:44:39;;;;;;;1999.90;999.90;;;;;;;15.50;100.00;95800.97;5130570;27;20587;-60
2021/06/08 05:47:09;;;;;;;1999.90;999.90;;;;;;;15.49;100.00;95791.56;5131432;27;20573;-60
2021/06/08 05:49:37;;;;;;;1999.90;999.90;;;;;;;15.58;100.00;95793.41;5133933;27;20227;-59
2021/06/08 05:52:05;;;;;;;1999.90;999.90;;;;;;;15.58;100.00;95802.06;5134090;27;20241;-60
2021/06/08 05:54:32;;;;;;;1999.90;999.90;;;;;;;15.77;100.00;95797.16;5133982;27;20195;-60
2021/06/08 05:57:02;;;;;;;1999.90;999.90;;;;;;;15.87;100.00;95793.38;5134025;27;20712;-60
2021/06/08 05:59:31;;;;;;;1999.90;999.90;;;;;;;15.91;100.00;95795.03;5134031;27;20199;-61
2021/06/08 06:01:58;;;;;;;1999.90;999.90;;;;;;;16.00;100.00;95794.97;5133716;27;20258;-61
2021/06/08 06:04:27;;;;;;;1999.90;999.90;;;;;;;16.21;100.00;95798.38;5133972;27;20230;-61
2021/06/08 06:06:54;;;;;;;1999.90;999.90;;;;;;;16.39;100.00;95803.47;5133811;27;20233;-61
2021/06/08 06:09:22;;;;;;;1999.90;999.90;;;;;;;16.33;100.00;95795.03;5133664;27;20565;-62
2021/06/08 06:11:52;;;;;;;1999.90;999.90;;;;;;;16.40;100.00;95789.25;5133687;27;20719;-60
2021/06/08 06:14:21;;;;;;;1999.90;999.90;;;;;;;16.44;100.00;95801.41;5133571;27;20577;-58
2021/06/08 06:16:52;;;;;;;1999.90;999.90;;;;;;;16.57;100.00;95795.13;5133413;27;20229;-60
2021/06/08 06:19:21;;;;;;;1999.90;999.90;;;;;;;16.61;100.00;95800.50;5133504;27;20583;-59
2021/06/08 06:21:49;;;;;;;1999.90;999.90;;;;;;;16.65;100.00;95798.78;5133397;27;20240;-61
2021/06/08 06:24:17;;;;;;;1999.90;999.90;;;;;;;16.91;100.00;95796.66;5133555;27;20247;-59
2021/06/08 06:26:45;;;;;;;1999.90;999.90;;;;;;;17.00;98.94;95797.31;5133346;27;20205;-57
2021/06/08 06:29:13;;;;;;;1999.90;999.90;;;;;;;17.22;97.27;95801.41;5133325;27;20271;-59
2021/06/08 06:31:44;;;;;;;1999.90;999.90;;;;;;;17.40;96.39;95799.31;5133491;27;20225;-61
2021/06/08 06:34:12;;;;;;;1999.90;999.90;;;;;;;17.26;97.11;95793.63;5133412;27;20197;-60
2021/06/08 06:36:40;;;;;;;1999.90;999.90;;;;;;;17.37;97.19;95794.72;5133249;27;20655;-59
2021/06/08 06:39:14;;;;;;;1999.90;999.90;;;;;;;17.49;97.01;95792.84;5133119;27;20197;-59
2021/06/08 06:41:42;;;;;;;1999.90;999.90;;;;;;;17.42;97.99;95794.50;5133071;27;20689;-59
2021/06/08 06:44:12;;;;;;;1999.90;999.90;;;;;;;17.58;97.05;95795.38;5133104;27;20262;-60
2021/06/08 06:46:39;;;;;;;1999.90;999.90;;;;;;;17.67;94.74;95793.44;5133143;27;20199;-59
2021/06/08 06:49:07;;;;;;;1999.90;999.90;;;;;;;17.88;93.08;95794.03;5132912;27;20239;-59
2021/06/08 06:51:35;;;;;;;1999.90;999.90;;;;;;;18.18;92.80;95785.88;5132872;27;20194;-60
2021/06/08 06:54:03;;;;;;;1999.90;999.90;;;;;;;17.94;92.49;95792.72;5132991;27;20600;-60
2021/06/08 06:56:31;;;;;;;1999.90;999.90;;;;;;;17.88;93.21;95788.03;5132916;27;20596;-59
2021/06/08 06:58:59;;;;;;;1999.90;999.90;;;;;;;17.94;94.58;95784.81;5132575;27;20206;-59
2021/06/08 07:01:27;;;;;;;1999.90;999.90;;;;;;;18.48;91.44;95785.19;5132689;27;20191;-60
2021/06/08 07:03:57;;;;;;;1999.90;999.90;;;;;;;18.69;91.86;95773.72;5132726;27;20222;-59
2021/06/08 07:06:26;;;;;;;1999.90;999.90;;;;;;;19.08;89.28;95774.69;5132659;27;20578;-60
2021/06/08 07:08:54;;;;;;;1999.90;999.90;;;;;;;19.54;92.91;95770.50;5132653;27;20229;-59
2021/06/08 07:11:22;;;;;;;1999.90;999.90;;;;;;;19.80;90.29;95775.19;5132334;27;20226;-60
2021/06/08 07:13:51;;;;;;;1999.90;999.90;;;;;;;19.04;88.42;95768.56;5132652;27;20218;-60
2021/06/08 07:16:22;;;;;;;1999.90;999.90;;;;;;;18.84;90.42;95765.81;5132357;27;20201;-61
2021/06/08 07:18:50;;;;;;;1999.90;999.90;;;;;;;18.80;90.25;95766.84;5132324;27;20279;-60
2021/06/08 07:21:19;;;;;;;1999.90;999.90;;;;;;;19.19;87.32;95775.69;5132131;27;20193;-60
2021/06/08 07:23:50;;;;;;;1999.90;999.90;;;;;;;19.14;90.10;95768.03;5132185;27;20274;-59
2021/06/08 07:26:18;;;;;;;1999.90;999.90;;;;;;;19.39;90.78;95768.63;5132030;27;20194;-60
2021/06/08 07:28:45;;;;;;;1999.90;999.90;;;;;;;19.32;88.86;95770.00;5132121;27;20293;-59
2021/06/08 07:31:23;;;;;;;1999.90;999.90;;;;;;;19.73;91.88;95768.66;5132117;27;20237;-60
2021/06/08 07:33:54;;;;;;;1999.90;999.90;;;;;;;20.17;87.50;95771.09;5131970;27;20277;-60
2021/06/08 07:36:27;;;;;;;1999.90;999.90;;;;;;;20.41;86.61;95775.34;5132034;27;20683;-60
2021/06/08 07:38:59;;;;;;;1999.90;999.90;;;;;;;20.93;80.42;95770.22;5132542;27;20210;-59
2021/06/08 07:41:35;;;;;;;1999.90;999.90;;;;;;;21.01;83.09;95760.53;5132013;27;20293;-60
2021/06/08 07:44:06;;;;;;;1999.90;999.90;;;;;;;21.38;82.39;95761.53;5131953;27;20197;-60
2021/06/08 07:46:39;;;;;;;1999.90;999.90;;;;;;;21.44;78.97;95767.28;5131996;27;20312;-60
2021/06/08 07:49:07;;;;;;;1999.90;999.90;;;;;;;21.65;81.13;95761.53;5131985;27;20239;-59
2021/06/08 07:51:35;;;;;;;1999.90;999.90;;;;;;;21.70;77.42;95763.88;5131686;27;20190;-60
2021/06/08 07:54:05;;;;;;;1999.90;999.90;;;;;;;21.93;77.11;95756.59;5131905;27;20197;-60
2021/06/08 07:56:33;;;;;;;1999.90;999.90;;;;;;;21.99;76.68;95765.03;5131476;27;20199;-59
2021/06/08 07:59:00;;;;;;;1999.90;999.90;;;;;;;22.00;75.18;95764.66;5132001;27;20275;-59
2021/06/08 08:01:27;;;;;;;1999.90;999.90;;;;;;;21.94;75.08;95758.16;5131858;27;20194;-61
2021/06/08 08:03:56;;;;;;;1999.90;999.90;;;;;;;22.04;78.36;95752.25;5131463;27;20187;-60
2021/06/08 08:06:25;;;;;;;1999.90;999.90;;;;;;;21.86;79.21;95754.66;5131554;27;20214;-59
2021/06/08 08:08:54;;;;;;;1999.90;999.90;;;;;;;21.94;78.08;95754.75;5131452;27;20206;-60
2021/06/08 08:11:23;;;;;;;1999.90;999.90;;;;;;;22.31;78.66;95751.06;5130713;27;20709;-60
2021/06/08 08:13:52;;;;;;;1999.90;999.90;;;;;;;22.45;77.74;95755.72;5131720;27;20259;-61
2021/06/08 08:16:20;;;;;;;1999.90;999.90;;;;;;;22.97;77.22;95752.06;5131357;27;20197;-60
2021/06/08 08:18:47;;;;;;;1999.90;999.90;;;;;;;22.62;72.07;95754.38;5131252;27;20313;-60
2021/06/08 08:21:18;;;;;;;1999.90;999.90;;;;;;;22.79;72.69;95748.53;5131565;27;20198;-59
2021/06/08 08:23:46;;;;;;;1999.90;999.90;;;;;;;23.07;72.15;95748.00;5131286;27;20221;-59
2021/06/08 08:26:14;;;;;;;1999.90;999.90;;;;;;;23.25;70.20;95745.50;5131352;27;20255;-59
2021/06/08 08:28:43;;;;;;;1999.90;999.90;;;;;;;23.09;73.76;95738.56;5131199;27;20344;-59
2021/06/08 08:31:12;;;;;;;1999.90;999.90;;;;;;;23.05;70.91;95740.41;5131285;27;20277;-60
2021/06/08 08:33:39;;;;;;;1999.90;999.90;;;;;;;22.70;71.13;95734.78;5131084;27;20186;-60
2021/06/08 08:36:06;;;;;;;1999.90;999.90;;;;;;;22.81;73.54;95732.25;5131573;28;20203;-59
2021/06/08 08:38:35;;;;;;;1999.90;999.90;;;;;;;22.82;72.75;95731.88;5130980;28;20752;-59
2021/06/08 08:41:04;;;;;;;1999.90;999.90;;;;;;;23.05;70.27;95724.50;5131010;28;20201;-60
2021/06/08 08:43:32;;;;;;;1999.90;999.90;;;;;;;23.32;71.13;95716.34;5131178;28;20277;-60
2021/06/08 08:45:59;;;;;;;1999.90;999.90;;;;;;;23.79;71.18;95718.94;5131137;28;20199;-59
2021/06/08 08:48:25;;;;;;;1999.90;999.90;;;;;;;23.76;69.26;95718.91;5131045;28;20195;-59
2021/06/08 08:50:54;;;;;;;1999.90;999.90;;;;;;;24.08;69.42;95711.06;5130764;27;20285;-58
2021/06/08 08:53:22;;;;;;;1999.90;999.90;;;;;;;24.39;67.31;95699.81;5131155;27;20191;-60
2021/06/08 08:55:51;;;;;;;1999.90;999.90;;;;;;;24.43;68.28;95701.34;5130825;28;20192;-60
2021/06/08 08:58:19;;;;;;;1999.90;999.90;;;;;;;24.77;65.56;95693.78;5130680;28;20785;-60
2021/06/08 09:00:46;;;;;;;1999.90;999.90;;;;;;;24.65;65.16;95699.47;5130719;28;20661;-59
2021/06/08 09:03:15;;;;;;;1999.90;999.90;;;;;;;24.86;64.84;95693.38;5130810;28;20214;-59
2021/06/08 09:05:42;;;;;;;1999.90;999.90;;;;;;;24.90;61.80;95688.13;5130928;28;20561;-60
2021/06/08 09:08:10;;;;;;;1999.90;999.90;;;;;;;24.50;62.09;95689.97;5130682;28;20289;-59
2021/06/08 09:10:39;;;;;;;1999.90;999.90;;;;;;;24.01;63.73;95688.66;5130316;28;20194;-60
2021/06/08 09:13:07;;;;;;;1999.90;999.90;;;;;;;24.19;63.80;95688.75;5130844;27;20190;-59
2021/06/08 09:15:36;;;;;;;1999.90;999.90;;;;;;;24.30;63.39;95686.13;5130799;28;20717;-58
2021/06/08 09:18:03;;;;;;;1999.90;999.90;;;;;;;24.52;63.16;95677.03;5130553;27;20301;-61
2021/06/08 09:20:32;;;;;;;1999.90;999.90;;;;;;;24.89;61.52;95675.97;5130961;27;20209;-59
2021/06/08 09:23:00;;;;;;;1999.90;999.90;;;;;;;25.28;61.68;95664.13;5134857;27;20226;-60
2021/06/08 09:25:48;;;;;;;1999.90;999.90;;;;;;;25.47;61.80;95662.94;5134529;27;20614;-59
2021/06/08 09:28:23;;;;;;;1999.90;999.90;;;;;;;25.49;60.58;95659.91;5134314;27;20700;-59
2021/06/08 09:30:55;;;;;;;1999.90;999.90;;;;;;;24.94;60.10;95655.06;5134470;27;20190;-58
2021/06/08 09:33:23;;;;;;;1999.90;999.90;;;;;;;25.55;59.79;95659.16;5134697;27;20286;-60
2021/06/08 09:35:52;;;;;;;1999.90;999.90;;;;;;;26.08;55.79;95647.50;5134576;27;20267;-61
2021/06/08 09:38:19;;;;;;;1999.90;999.90;;;;;;;26.11;58.01;95641.38;5134248;27;20225;-60
2021/06/08 09:40:46;;;;;;;1999.90;999.90;;;;;;;26.49;57.22;95639.66;5134293;27;20294;-60
2021/06/08 09:43:15;;;;;;;1999.90;999.90;;;;;;;26.60;55.60;95634.25;5134393;27;20195;-59
2021/06/08 09:45:45;;;;;;;1999.90;999.90;;;;;;;26.66;56.64;95641.44;5134365;27;20202;-59
2021/06/08 09:48:15;;;;;;;1999.90;999.90;;;;;;;26.79;57.62;95634.47;5134087;27;20206;-60
2021/06/08 09:50:43;;;;;;;1999.90;999.90;;;;;;;27.11;55.06;95638.78;5133956;27;20262;-62
2021/06/08 09:53:18;;;;;;;1999.90;999.90;;;;;;;27.14;51.55;95638.75;5133956;27;20691;-61
2021/06/08 09:55:50;;;;;;;1999.90;999.90;;;;;;;27.32;53.09;95638.56;5133918;27;20645;-60
2021/06/08 09:58:18;;;;;;;1999.90;999.90;;;;;;;27.30;50.05;95633.63;5133830;27;20226;-60
2021/06/08 10:01:15;;;;;;;1999.90;999.90;;;;;;;27.48;48.37;95622.75;5133860;27;20191;-60
2021/06/08 10:03:43;;;;;;;1999.90;999.90;;;;;;;27.24;49.69;95619.22;5133816;27;20328;-60
2021/06/08 10:06:12;;;;;;;1999.90;999.90;;;;;;;27.37;51.44;95614.88;5133968;27;20226;-60
2021/06/08 10:08:50;;;;;;;1999.90;999.90;;;;;;;27.49;47.24;95618.97;5133925;27;20198;-61
2021/06/08 10:11:18;;;;;;;1999.90;999.90;;;;;;;27.39;47.44;95617.91;5133748;27;20233;-61
2021/06/08 10:13:45;;;;;;;1999.90;999.90;;;;;;;27.32;46.37;95609.97;5133610;27;20285;-61
2021/06/08 10:16:26;;;;;;;1999.90;999.90;;;;;;;26.49;52.08;95613.78;5133515;27;20640;-61
2021/06/08 10:18:53;;;;;;;1999.90;999.90;;;;;;;26.34;49.35;95614.25;5133591;27;20313;-61
2021/06/08 10:21:36;;;;;;;1999.90;999.90;;;;;;;26.08;48.52;95615.53;5133474;27;20277;-59
2021/06/08 10:24:05;;;;;;;1999.90;999.90;;;;;;;25.46;47.75;95612.75;5133479;27;20604;-60
2021/06/08 10:26:35;;;;;;;1999.90;999.90;;;;;;;25.09;49.38;95615.91;5133283;27;20557;-62
2021/06/08 10:29:05;;;;;;;1999.90;999.90;;;;;;;25.20;49.73;95620.06;5133640;27;20213;-60
2021/06/08 10:31:35;;;;;;;1999.90;999.90;;;;;;;25.44;48.43;95625.69;5133899;27;20236;-61
2021/06/08 10:34:05;;;;;;;1999.90;999.90;;;;;;;25.33;50.74;95630.28;5132455;27;20251;-60
2021/06/08 10:36:33;;;;;;;1999.90;999.90;;;;;;;24.73;59.49;95631.88;5133076;27;20567;-60
2021/06/08 10:39:00;;;;;;;1999.90;999.90;;;;;;;24.48;62.23;95617.81;5132896;27;20229;-59
2021/06/08 10:41:28;;;;;;;1999.90;999.90;;;;;;;24.05;62.38;95613.56;5133341;27;20186;-60
2021/06/08 10:43:55;;;;;;;1999.90;999.90;;;;;;;23.91;62.25;95609.75;5133223;27;20198;-60
2021/06/08 10:46:30;;;;;;;1999.90;999.90;;;;;;;23.72;61.53;95607.41;5133155;27;20187;-59
2021/06/08 10:48:59;;;;;;;1999.90;999.90;;;;;;;23.43;61.61;95619.03;5133325;27;20225;-60
2021/06/08 10:51:27;;;;;;;1999.90;999.90;;;;;;;23.45;63.12;95612.25;5132889;27;20619;-59
2021/06/08 10:53:56;;;;;;;1999.90;999.90;;;;;;;23.26;67.82;95620.47;5131484;27;20206;-62
2021/06/08 10:56:28;;;;;;;1999.90;999.90;;;;;;;22.71;75.05;95622.41;5133192;27;20194;-60
2021/06/08 10:58:57;;;;;;;1999.90;999.90;;;;;;;22.21;75.38;95619.31;5132638;27;20222;-60